createdAt,value
2018-04-13T00:00:43.642Z,947.31
2018-04-13T00:01:43.569Z,947.32
2018-04-13T00:02:43.509Z,947.26
2018-04-13T00:03:43.444Z,947.34
2018-04-13T00:04:43.381Z,947.32
2018-04-13T00:05:43.325Z,947.33
2018-04-13T00:06:43.261Z,947.32
2018-04-13T00:07:43.193Z,947.35
2018-04-13T00:08:43.128Z,947.38
2018-04-13T00:09:43.066Z,947.40
2018-04-13T00:10:43.003Z,947.36
2018-04-13T00:11:42.941Z,947.35
2018-04-13T00:12:42.878Z,947.41
2018-04-13T00:13:42.815Z,947.35
2018-04-13T00:14:42.753Z,947.35
2018-04-13T00:15:42.691Z,947.36
2018-04-13T00:16:42.625Z,947.39
2018-04-13T00:17:42.564Z,947.37
2018-04-13T00:18:42.501Z,947.34
2018-04-13T00:19:42.438Z,947.40
2018-04-13T00:20:42.375Z,947.39
2018-04-13T00:21:42.311Z,947.42
2018-04-13T00:22:42.253Z,947.41
2018-04-13T00:23:42.188Z,947.39
2018-04-13T00:24:42.124Z,947.39
2018-04-13T00:25:42.062Z,947.37
2018-04-13T00:26:41.998Z,947.36
2018-04-13T00:27:41.937Z,947.38
2018-04-13T00:28:41.873Z,947.44
2018-04-13T00:29:41.812Z,947.40
2018-04-13T00:30:41.747Z,947.41
2018-04-13T00:31:41.686Z,947.42
2018-04-13T00:32:41.622Z,947.43
2018-04-13T00:33:41.560Z,947.39
2018-04-13T00:34:41.496Z,947.44
2018-04-13T00:35:41.435Z,947.43
2018-04-13T00:36:41.371Z,947.41
2018-04-13T00:37:41.305Z,947.42
2018-04-13T00:38:41.246Z,947.38
2018-04-13T00:39:41.184Z,947.35
2018-04-13T00:40:41.123Z,947.37
2018-04-13T00:41:41.056Z,947.37
2018-04-13T00:42:40.995Z,947.37
2018-04-13T00:43:40.936Z,947.34
2018-04-13T00:44:40.868Z,947.34
2018-04-13T00:45:40.808Z,947.37
2018-04-13T00:46:40.748Z,947.39
2018-04-13T00:47:40.680Z,947.39
2018-04-13T00:48:40.617Z,947.44
2018-04-13T00:49:40.554Z,947.45
2018-04-13T00:50:40.492Z,947.45
2018-04-13T00:51:40.429Z,947.45
2018-04-13T00:52:40.364Z,947.45
2018-04-13T00:53:40.304Z,947.51
2018-04-13T00:54:40.240Z,947.49
2018-04-13T00:55:40.180Z,947.50
2018-04-13T00:56:40.111Z,947.47
2018-04-13T00:57:40.056Z,947.52
2018-04-13T00:58:39.993Z,947.55
2018-04-13T00:59:39.927Z,947.58
2018-04-13T01:00:39.865Z,947.58
2018-04-13T01:01:39.802Z,947.56
2018-04-13T01:02:39.739Z,947.60
2018-04-13T01:03:39.677Z,947.57
2018-04-13T01:04:39.612Z,947.57
2018-04-13T01:05:39.551Z,947.53
2018-04-13T01:06:39.488Z,947.55
2018-04-13T01:07:39.426Z,947.55
2018-04-13T01:08:39.410Z,947.56
2018-04-13T01:09:39.301Z,947.57
2018-04-13T01:10:39.237Z,947.59
2018-04-13T01:11:39.174Z,947.58
2018-04-13T01:12:39.110Z,947.56
2018-04-13T01:13:39.050Z,947.59
2018-04-13T01:14:38.986Z,947.60
2018-04-13T01:15:38.925Z,947.60
2018-04-13T01:16:38.860Z,947.60
2018-04-13T01:17:38.797Z,947.63
2018-04-13T01:18:38.733Z,947.59
2018-04-13T01:19:38.672Z,947.61
2018-04-13T01:20:38.609Z,947.60
2018-04-13T01:21:38.547Z,947.58
2018-04-13T01:22:38.484Z,947.59
2018-04-13T01:23:38.421Z,947.60
2018-04-13T01:24:38.357Z,947.56
2018-04-13T01:25:38.294Z,947.56
2018-04-13T01:26:38.233Z,947.52
2018-04-13T01:27:38.169Z,947.54
2018-04-13T01:28:38.106Z,947.54
2018-04-13T01:29:38.045Z,947.55
2018-04-13T01:30:37.981Z,947.55
2018-04-13T01:31:37.925Z,947.54
2018-04-13T01:32:37.856Z,947.54
2018-04-13T01:33:37.793Z,947.58
2018-04-13T01:34:37.729Z,947.58
2018-04-13T01:35:37.671Z,947.59
2018-04-13T01:36:37.604Z,947.60
2018-04-13T01:37:37.542Z,947.63
2018-04-13T01:38:37.474Z,947.59
2018-04-13T01:39:37.418Z,947.63
2018-04-13T01:40:37.351Z,947.60
2018-04-13T01:41:37.290Z,947.54
2018-04-13T01:42:37.229Z,947.60
2018-04-13T01:43:37.169Z,947.54
2018-04-13T01:44:37.102Z,947.52
2018-04-13T01:45:37.038Z,947.55
2018-04-13T01:46:36.975Z,947.57
2018-04-13T01:47:36.914Z,947.58
2018-04-13T01:48:36.850Z,947.52
2018-04-13T01:49:36.787Z,947.55
2018-04-13T01:50:36.724Z,947.58
2018-04-13T01:51:36.661Z,947.52
2018-04-13T01:52:36.598Z,947.52
2018-04-13T01:53:36.544Z,947.54
2018-04-13T01:54:36.474Z,947.52
2018-04-13T01:55:36.408Z,947.55
2018-04-13T01:56:36.348Z,947.55
2018-04-13T01:57:36.284Z,947.60
2018-04-13T01:58:36.222Z,947.60
2018-04-13T01:59:36.160Z,947.61
2018-04-13T02:00:36.094Z,947.67
2018-04-13T02:01:36.032Z,947.68
2018-04-13T02:02:35.978Z,947.64
2018-04-13T02:03:35.907Z,947.67
2018-04-13T02:04:35.843Z,947.72
2018-04-13T02:05:35.781Z,947.72
2018-04-13T02:06:35.718Z,947.71
2018-04-13T02:07:35.657Z,947.73
2018-04-13T02:08:35.592Z,947.69
2018-04-13T02:09:35.529Z,947.70
2018-04-13T02:10:35.474Z,947.76
2018-04-13T02:11:35.405Z,947.80
2018-04-13T02:12:35.347Z,947.79
2018-04-13T02:13:35.278Z,947.79
2018-04-13T02:14:35.219Z,947.80
2018-04-13T02:15:35.152Z,947.82
2018-04-13T02:16:35.089Z,947.83
2018-04-13T02:17:35.027Z,947.84
2018-04-13T02:18:34.963Z,947.84
2018-04-13T02:19:34.901Z,947.83
2018-04-13T02:20:34.842Z,947.85
2018-04-13T02:21:34.773Z,947.79
2018-04-13T02:22:34.711Z,947.87
2018-04-13T02:23:34.649Z,947.82
2018-04-13T02:24:34.587Z,947.81
2018-04-13T02:25:34.522Z,947.83
2018-04-13T02:26:34.460Z,947.83
2018-04-13T02:27:34.409Z,947.80
2018-04-13T02:28:34.335Z,947.80
2018-04-13T02:29:34.271Z,947.78
2018-04-13T02:30:34.207Z,947.77
2018-04-13T02:31:34.144Z,947.81
2018-04-13T02:32:34.084Z,947.82
2018-04-13T02:33:34.019Z,947.86
2018-04-13T02:34:34.026Z,947.83
2018-04-13T02:35:33.896Z,947.92
2018-04-13T02:36:33.839Z,947.94
2018-04-13T02:37:33.767Z,947.91
2018-04-13T02:38:33.705Z,947.92
2018-04-13T02:39:33.642Z,947.93
2018-04-13T02:40:33.577Z,947.93
2018-04-13T02:41:33.517Z,947.96
2018-04-13T02:42:33.451Z,947.93
2018-04-13T02:43:33.390Z,947.99
2018-04-13T02:44:33.331Z,947.95
2018-04-13T02:45:33.263Z,947.98
2018-04-13T02:46:33.204Z,948.00
2018-04-13T02:47:33.138Z,948.00
2018-04-13T02:48:33.073Z,947.97
2018-04-13T02:49:33.010Z,947.96
2018-04-13T02:50:32.950Z,948.00
2018-04-13T02:51:32.890Z,947.99
2018-04-13T02:52:32.825Z,948.00
2018-04-13T02:53:32.762Z,947.97
2018-04-13T02:54:32.696Z,947.95
2018-04-13T02:55:32.633Z,947.97
2018-04-13T02:56:32.569Z,947.97
2018-04-13T02:57:32.507Z,947.98
2018-04-13T02:58:32.445Z,948.02
2018-04-13T02:59:32.381Z,948.00
2018-04-13T03:00:32.317Z,948.03
2018-04-13T03:01:32.256Z,947.98
2018-04-13T03:02:32.201Z,948.04
2018-04-13T03:03:32.129Z,948.02
2018-04-13T03:04:32.067Z,948.03
2018-04-13T03:05:32.000Z,948.03
2018-04-13T03:06:31.939Z,948.03
2018-04-13T03:07:31.883Z,948.04
2018-04-13T03:08:31.813Z,948.02
2018-04-13T03:09:31.754Z,948.07
2018-04-13T03:10:31.689Z,948.09
2018-04-13T03:11:31.625Z,948.08
2018-04-13T03:12:31.564Z,948.09
2018-04-13T03:13:31.501Z,948.13
2018-04-13T03:14:31.438Z,948.13
2018-04-13T03:15:31.377Z,948.17
2018-04-13T03:16:31.312Z,948.10
2018-04-13T03:17:31.249Z,948.17
2018-04-13T03:18:31.188Z,948.13
2018-04-13T03:19:31.126Z,948.14
2018-04-13T03:20:31.061Z,948.14
2018-04-13T03:21:30.998Z,948.15
2018-04-13T03:22:30.935Z,948.10
2018-04-13T03:23:30.873Z,948.12
2018-04-13T03:24:30.809Z,948.14
2018-04-13T03:25:30.745Z,948.10
2018-04-13T03:26:30.683Z,948.15
2018-04-13T03:27:30.623Z,948.16
2018-04-13T03:28:30.557Z,948.18
2018-04-13T03:29:30.493Z,948.15
2018-04-13T03:30:30.433Z,948.19
2018-04-13T03:31:30.372Z,948.20
2018-04-13T03:32:30.306Z,948.20
2018-04-13T03:33:30.244Z,948.21
2018-04-13T03:34:30.184Z,948.24
2018-04-13T03:35:30.116Z,948.23
2018-04-13T03:36:30.054Z,948.24
2018-04-13T03:37:29.991Z,948.29
2018-04-13T03:38:29.927Z,948.26
2018-04-13T03:39:29.865Z,948.29
2018-04-13T03:40:29.801Z,948.30
2018-04-13T03:41:29.743Z,948.31
2018-04-13T03:42:29.675Z,948.36
2018-04-13T03:43:29.616Z,948.32
2018-04-13T03:44:29.549Z,948.33
2018-04-13T03:45:29.489Z,948.32
2018-04-13T03:46:29.425Z,948.32
2018-04-13T03:47:29.363Z,948.36
2018-04-13T03:48:29.300Z,948.36
2018-04-13T03:49:29.236Z,948.34
2018-04-13T03:50:29.174Z,948.34
2018-04-13T03:51:29.111Z,948.38
2018-04-13T03:52:29.047Z,948.42
2018-04-13T03:53:28.987Z,948.42
2018-04-13T03:54:28.951Z,948.41
2018-04-13T03:55:28.859Z,948.41
2018-04-13T03:56:28.795Z,948.44
2018-04-13T03:57:28.736Z,948.46
2018-04-13T03:58:28.670Z,948.48
2018-04-13T03:59:28.607Z,948.49
2018-04-13T04:00:28.545Z,948.47
2018-04-13T04:01:28.482Z,948.47
2018-04-13T04:02:28.420Z,948.45
2018-04-13T04:03:28.357Z,948.49
2018-04-13T04:04:28.292Z,948.51
2018-04-13T04:05:28.229Z,948.52
2018-04-13T04:06:28.167Z,948.55
2018-04-13T04:07:28.102Z,948.52
2018-04-13T04:08:28.040Z,948.58
2018-04-13T04:09:27.983Z,948.58
2018-04-13T04:10:27.917Z,948.60
2018-04-13T04:11:27.853Z,948.63
2018-04-13T04:12:27.789Z,948.70
2018-04-13T04:13:27.729Z,948.71
2018-04-13T04:14:27.664Z,948.72
2018-04-13T04:15:27.601Z,948.74
2018-04-13T04:16:27.549Z,948.77
2018-04-13T04:17:27.472Z,948.78
2018-04-13T04:18:27.417Z,948.79
2018-04-13T04:19:27.348Z,948.82
2018-04-13T04:20:27.285Z,948.84
2018-04-13T04:21:27.222Z,948.81
2018-04-13T04:22:27.159Z,948.82
2018-04-13T04:23:27.097Z,948.83
2018-04-13T04:24:27.032Z,948.87
2018-04-13T04:25:26.971Z,948.90
2018-04-13T04:26:26.907Z,948.89
2018-04-13T04:27:26.848Z,948.92
2018-04-13T04:28:26.786Z,948.91
2018-04-13T04:29:26.719Z,948.95
2018-04-13T04:30:26.655Z,948.95
2018-04-13T04:31:26.593Z,949.03
2018-04-13T04:32:26.530Z,949.02
2018-04-13T04:33:26.470Z,949.05
2018-04-13T04:34:26.407Z,949.04
2018-04-13T04:35:26.340Z,949.01
2018-04-13T04:36:26.277Z,949.05
2018-04-13T04:37:26.216Z,949.09
2018-04-13T04:38:26.155Z,949.11
2018-04-13T04:39:26.091Z,949.17
2018-04-13T04:40:26.027Z,949.11
2018-04-13T04:41:25.964Z,949.14
2018-04-13T04:42:25.901Z,949.16
2018-04-13T04:43:25.840Z,949.22
2018-04-13T04:44:25.782Z,949.29
2018-04-13T04:45:25.713Z,949.25
2018-04-13T04:46:25.648Z,949.26
2018-04-13T04:47:25.587Z,949.25
2018-04-13T04:48:25.523Z,949.28
2018-04-13T04:49:25.461Z,949.31
2018-04-13T04:50:25.399Z,949.30
2018-04-13T04:51:25.336Z,949.32
2018-04-13T04:52:25.274Z,949.29
2018-04-13T04:53:25.211Z,949.25
2018-04-13T04:54:25.147Z,949.26
2018-04-13T04:55:25.086Z,949.26
2018-04-13T04:56:25.022Z,949.28
2018-04-13T04:57:24.959Z,949.32
2018-04-13T04:58:24.897Z,949.28
2018-04-13T04:59:24.835Z,949.31
2018-04-13T05:00:24.771Z,949.33
2018-04-13T05:01:24.709Z,949.32
2018-04-13T05:02:24.646Z,949.38
2018-04-13T05:03:24.584Z,949.37
2018-04-13T05:04:24.523Z,949.39
2018-04-13T05:05:24.457Z,949.37
2018-04-13T05:06:24.395Z,949.43
2018-04-13T05:07:24.333Z,949.45
2018-04-13T05:08:24.270Z,949.43
2018-04-13T05:09:24.205Z,949.43
2018-04-13T05:10:24.145Z,949.46
2018-04-13T05:11:24.081Z,949.48
2018-04-13T05:12:24.017Z,949.51
2018-04-13T05:13:23.955Z,949.49
2018-04-13T05:14:23.891Z,949.46
2018-04-13T05:15:23.830Z,949.47
2018-04-13T05:16:23.767Z,949.45
2018-04-13T05:17:23.702Z,949.44
2018-04-13T05:18:23.641Z,949.45
2018-04-13T05:19:23.617Z,949.45
2018-04-13T05:20:23.522Z,949.48
2018-04-13T05:21:23.451Z,949.47
2018-04-13T05:22:23.389Z,949.51
2018-04-13T05:23:23.326Z,949.52
2018-04-13T05:24:23.263Z,949.54
2018-04-13T05:25:23.201Z,949.56
2018-04-13T05:26:23.181Z,949.59
2018-04-13T05:27:23.117Z,949.60
2018-04-13T05:28:23.053Z,949.57
2018-04-13T05:29:22.950Z,949.59
2018-04-13T05:30:22.930Z,949.57
2018-04-13T05:31:22.824Z,949.58
2018-04-13T05:32:22.762Z,949.59
2018-04-13T05:33:22.700Z,949.56
2018-04-13T05:34:22.637Z,949.59
2018-04-13T05:35:22.579Z,949.56
2018-04-13T05:36:22.509Z,949.57
2018-04-13T05:37:22.447Z,949.57
2018-04-13T05:38:22.387Z,949.59
2018-04-13T05:39:22.323Z,949.61
2018-04-13T05:40:22.258Z,949.58
2018-04-13T05:41:22.205Z,949.61
2018-04-13T05:42:22.133Z,949.58
2018-04-13T05:43:22.071Z,949.58
2018-04-13T05:44:22.009Z,949.59
2018-04-13T05:45:21.945Z,949.64
2018-04-13T05:46:21.881Z,949.63
2018-04-13T05:47:21.820Z,949.64
2018-04-13T05:48:21.757Z,949.68
2018-04-13T05:49:21.693Z,949.68
2018-04-13T05:50:21.629Z,949.71
2018-04-13T05:51:21.583Z,949.65
2018-04-13T05:52:21.507Z,949.70
2018-04-13T05:53:21.444Z,949.70
2018-04-13T05:54:21.381Z,949.72
2018-04-13T05:55:21.318Z,949.72
2018-04-13T05:56:21.255Z,949.72
2018-04-13T05:57:21.192Z,949.71
2018-04-13T05:58:21.131Z,949.72
2018-04-13T05:59:21.075Z,949.76
2018-04-13T06:00:21.010Z,949.79
2018-04-13T06:01:20.941Z,949.74
2018-04-13T06:02:20.883Z,949.73
2018-04-13T06:03:20.819Z,949.78
2018-04-13T06:04:20.754Z,949.77
2018-04-13T06:05:20.691Z,949.78
2018-04-13T06:06:20.627Z,949.80
2018-04-13T06:07:20.565Z,949.82
2018-04-13T06:08:20.502Z,949.86
2018-04-13T06:09:20.442Z,949.83
2018-04-13T06:10:20.380Z,949.84
2018-04-13T06:11:20.315Z,949.87
2018-04-13T06:12:20.257Z,949.88
2018-04-13T06:13:20.185Z,949.86
2018-04-13T06:14:20.128Z,949.87
2018-04-13T06:15:20.067Z,949.92
2018-04-13T06:16:20.000Z,949.91
2018-04-13T06:17:19.942Z,949.89
2018-04-13T06:18:19.879Z,949.93
2018-04-13T06:19:19.821Z,949.95
2018-04-13T06:20:19.754Z,949.99
2018-04-13T06:21:19.692Z,949.98
2018-04-13T06:22:19.630Z,950.05
2018-04-13T06:23:19.567Z,950.00
2018-04-13T06:24:19.560Z,950.06
2018-04-13T06:25:19.446Z,950.04
2018-04-13T06:26:19.381Z,950.11
2018-04-13T06:27:19.320Z,950.08
2018-04-13T06:28:19.261Z,950.13
2018-04-13T06:29:19.193Z,950.16
2018-04-13T06:30:19.161Z,950.18
2018-04-13T06:31:19.088Z,950.15
2018-04-13T06:32:19.005Z,950.19
2018-04-13T06:33:18.946Z,950.18
2018-04-13T06:34:18.904Z,950.21
2018-04-13T06:35:18.820Z,950.23
2018-04-13T06:36:18.758Z,950.23
2018-04-13T06:37:18.717Z,950.26
2018-04-13T06:38:18.636Z,950.30
2018-04-13T06:39:18.572Z,950.29
2018-04-13T06:40:18.510Z,950.32
2018-04-13T06:41:18.449Z,950.35
2018-04-13T06:42:18.390Z,950.39
2018-04-13T06:43:18.326Z,950.41
2018-04-13T06:44:18.262Z,950.40
2018-04-13T06:45:18.201Z,950.41
2018-04-13T06:46:18.142Z,950.46
2018-04-13T06:47:18.077Z,950.44
2018-04-13T06:48:18.016Z,950.45
2018-04-13T06:49:17.953Z,950.48
2018-04-13T06:50:17.890Z,950.51
2018-04-13T06:51:17.830Z,950.50
2018-04-13T06:52:17.767Z,950.52
2018-04-13T06:53:17.706Z,950.55
2018-04-13T06:54:17.643Z,950.54
2018-04-13T06:55:17.582Z,950.59
2018-04-13T06:56:17.519Z,950.59
2018-04-13T06:57:17.459Z,950.56
2018-04-13T06:58:17.398Z,950.57
2018-04-13T06:59:17.338Z,950.59
2018-04-13T07:00:17.272Z,950.59
2018-04-13T07:01:17.292Z,950.56
2018-04-13T07:02:17.151Z,950.53
2018-04-13T07:03:17.088Z,950.53
2018-04-13T07:04:17.027Z,950.49
2018-04-13T07:05:16.971Z,950.59
2018-04-13T07:06:16.903Z,950.49
2018-04-13T07:07:16.842Z,950.52
2018-04-13T07:08:16.809Z,950.56
2018-04-13T07:09:16.721Z,950.53
2018-04-13T07:10:16.656Z,950.53
2018-04-13T07:11:16.596Z,950.53
2018-04-13T07:12:16.534Z,950.59
2018-04-13T07:13:16.473Z,950.61
2018-04-13T07:14:16.413Z,950.59
2018-04-13T07:15:16.351Z,950.65
2018-04-13T07:16:16.288Z,950.56
2018-04-13T07:17:16.227Z,950.61
2018-04-13T07:18:16.185Z,950.62
2018-04-13T07:19:16.179Z,950.64
2018-04-13T07:20:16.044Z,950.61
2018-04-13T07:21:15.983Z,950.70
2018-04-13T07:22:15.961Z,950.63
2018-04-13T07:23:15.861Z,950.61
2018-04-13T07:24:15.806Z,950.64
2018-04-13T07:25:15.737Z,950.61
2018-04-13T07:26:15.676Z,950.63
2018-04-13T07:27:15.615Z,950.67
2018-04-13T07:28:15.556Z,950.62
2018-04-13T07:29:15.498Z,950.69
2018-04-13T07:30:15.474Z,950.62
2018-04-13T07:31:15.372Z,950.68
2018-04-13T07:32:15.396Z,950.67
2018-04-13T07:33:15.248Z,950.69
2018-04-13T07:34:15.190Z,950.64
2018-04-13T07:35:15.131Z,950.65
2018-04-13T07:36:15.069Z,950.69
2018-04-13T07:37:15.010Z,950.66
2018-04-13T07:38:14.944Z,950.74
2018-04-13T07:39:14.893Z,950.68
2018-04-13T07:40:14.824Z,950.70
2018-04-13T07:41:14.766Z,950.74
2018-04-13T07:42:14.968Z,950.73
2018-04-13T07:43:14.645Z,950.77
2018-04-13T07:44:14.584Z,950.82
2018-04-13T07:45:14.544Z,950.72
2018-04-13T07:46:14.633Z,950.78
2018-04-13T07:47:14.405Z,950.80
2018-04-13T07:48:14.343Z,950.85
2018-04-13T07:49:14.282Z,950.76
2018-04-13T07:50:14.349Z,950.77
2018-04-13T07:51:14.162Z,950.81
2018-04-13T07:52:14.144Z,950.80
2018-04-13T07:53:14.042Z,950.77
2018-04-13T07:54:13.986Z,950.80
2018-04-13T07:55:13.922Z,950.72
2018-04-13T07:56:13.864Z,950.75
2018-04-13T07:57:13.801Z,950.77
2018-04-13T07:58:13.742Z,950.79
2018-04-13T07:59:13.836Z,950.78
2018-04-13T08:00:13.622Z,950.79
2018-04-13T08:01:13.564Z,950.82
2018-04-13T08:02:13.503Z,950.86
2018-04-13T08:03:13.444Z,950.85
2018-04-13T08:04:13.386Z,950.88
2018-04-13T08:05:13.324Z,950.85
2018-04-13T08:06:13.266Z,950.83
2018-04-13T08:07:13.204Z,950.91
2018-04-13T08:08:13.198Z,950.85
2018-04-13T08:09:13.107Z,950.93
2018-04-13T08:10:13.625Z,951.03
2018-04-13T08:11:12.966Z,951.00
2018-04-13T08:12:12.915Z,951.09
2018-04-13T08:13:12.846Z,951.04
2018-04-13T08:14:12.802Z,951.13
2018-04-13T08:15:12.782Z,951.06
2018-04-13T08:16:12.668Z,951.16
2018-04-13T08:17:12.608Z,951.15
2018-04-13T08:18:12.551Z,951.20
2018-04-13T08:19:12.489Z,951.15
2018-04-13T08:20:12.428Z,951.16
2018-04-13T08:21:12.367Z,951.24
2018-04-13T08:22:12.317Z,951.28
2018-04-13T08:23:12.255Z,951.12
2018-04-13T08:24:12.195Z,951.26
2018-04-13T08:25:12.124Z,951.32
2018-04-13T08:26:12.069Z,951.34
2018-04-13T08:27:12.009Z,951.37
2018-04-13T08:28:11.953Z,951.46
2018-04-13T08:29:11.898Z,951.39
2018-04-13T08:30:11.831Z,951.46
2018-04-13T08:31:11.769Z,951.44
2018-04-13T08:32:11.710Z,951.45
2018-04-13T08:33:11.649Z,951.39
2018-04-13T08:34:11.612Z,951.34
2018-04-13T08:35:11.533Z,951.42
2018-04-13T08:36:11.483Z,951.48
2018-04-13T08:37:11.411Z,951.57
2018-04-13T08:38:11.351Z,951.52
2018-04-13T08:39:11.314Z,951.57
2018-04-13T08:40:11.231Z,951.52
2018-04-13T08:41:11.171Z,951.58
2018-04-13T08:42:11.110Z,951.61
2018-04-13T08:43:11.102Z,951.61
2018-04-13T08:44:10.992Z,951.63
2018-04-13T08:45:10.966Z,951.64
2018-04-13T08:46:10.871Z,951.69
2018-04-13T08:47:10.812Z,951.73
2018-04-13T08:48:10.752Z,951.75
2018-04-13T08:49:10.829Z,951.79
2018-04-13T08:50:10.634Z,951.84
2018-04-13T08:51:10.574Z,951.77
2018-04-13T08:52:10.515Z,951.83
2018-04-13T08:53:10.517Z,951.87
2018-04-13T08:54:10.463Z,951.90
2018-04-13T08:55:10.336Z,951.95
2018-04-13T08:56:10.275Z,951.94
2018-04-13T08:57:10.228Z,951.94
2018-04-13T08:58:10.157Z,952.02
2018-04-13T08:59:10.155Z,952.07
2018-04-13T09:00:10.047Z,952.05
2018-04-13T09:01:10.018Z,952.13
2018-04-13T09:02:09.922Z,952.10
2018-04-13T09:03:09.862Z,952.17
2018-04-13T09:04:09.802Z,952.15
2018-04-13T09:05:09.749Z,952.11
2018-04-13T09:06:09.715Z,952.17
2018-04-13T09:07:09.631Z,952.22
2018-04-13T09:08:09.566Z,952.21
2018-04-13T09:09:09.507Z,952.31
2018-04-13T09:10:09.448Z,952.26
2018-04-13T09:11:09.389Z,952.28
2018-04-13T09:12:09.328Z,952.33
2018-04-13T09:13:09.269Z,952.40
2018-04-13T09:14:09.208Z,952.37
2018-04-13T09:15:09.153Z,952.39
2018-04-13T09:16:09.091Z,952.38
2018-04-13T09:17:09.031Z,952.40
2018-04-13T09:18:08.972Z,952.38
2018-04-13T09:19:08.926Z,952.41
2018-04-13T09:20:08.854Z,952.47
2018-04-13T09:21:08.793Z,952.52
2018-04-13T09:22:08.735Z,952.51
2018-04-13T09:23:08.675Z,952.51
2018-04-13T09:24:08.620Z,952.55
2018-04-13T09:25:08.558Z,952.55
2018-04-13T09:26:08.497Z,952.58
2018-04-13T09:27:08.437Z,952.56
2018-04-13T09:28:08.376Z,952.64
2018-04-13T09:29:08.317Z,952.63
2018-04-13T09:30:08.259Z,952.65
2018-04-13T09:31:08.208Z,952.64
2018-04-13T09:32:08.143Z,952.72
2018-04-13T09:33:08.078Z,952.68
2018-04-13T09:34:08.021Z,952.69
2018-04-13T09:35:07.960Z,952.64
2018-04-13T09:36:07.902Z,952.72
2018-04-13T09:37:07.857Z,952.70
2018-04-13T09:38:07.784Z,952.76
2018-04-13T09:39:07.735Z,952.72
2018-04-13T09:40:07.678Z,952.74
2018-04-13T09:41:07.606Z,952.77
2018-04-13T09:42:07.543Z,952.77
2018-04-13T09:43:07.491Z,952.77
2018-04-13T09:44:07.430Z,952.82
2018-04-13T09:45:07.365Z,952.83
2018-04-13T09:46:07.314Z,952.84
2018-04-13T09:47:07.243Z,952.78
2018-04-13T09:48:07.187Z,952.84
2018-04-13T09:49:07.127Z,952.85
2018-04-13T09:50:07.067Z,952.90
2018-04-13T09:51:07.012Z,952.92
2018-04-13T09:52:06.947Z,952.92
2018-04-13T09:53:06.891Z,952.97
2018-04-13T09:54:06.831Z,952.99
2018-04-13T09:55:06.783Z,953.02
2018-04-13T09:56:06.760Z,952.99
2018-04-13T09:57:06.656Z,952.97
2018-04-13T09:58:06.595Z,953.01
2018-04-13T09:59:06.537Z,952.99
2018-04-13T10:00:06.476Z,953.00
2018-04-13T10:01:06.415Z,953.06
2018-04-13T10:02:06.356Z,953.04
2018-04-13T10:03:06.300Z,953.02
2018-04-13T10:04:06.240Z,953.03
2018-04-13T10:05:06.182Z,953.03
2018-04-13T10:06:06.122Z,953.05
2018-04-13T10:07:06.063Z,953.09
2018-04-13T10:08:06.021Z,953.06
2018-04-13T10:09:05.944Z,953.09
2018-04-13T10:10:05.887Z,953.10
2018-04-13T10:11:05.832Z,953.12
2018-04-13T10:12:05.769Z,953.05
2018-04-13T10:13:05.711Z,953.04
2018-04-13T10:14:05.653Z,953.05
2018-04-13T10:15:05.594Z,953.06
2018-04-13T10:16:05.535Z,953.11
2018-04-13T10:17:05.474Z,953.10
2018-04-13T10:18:05.417Z,953.15
2018-04-13T10:19:05.361Z,953.01
2018-04-13T10:20:05.303Z,953.03
2018-04-13T10:21:05.239Z,953.09
2018-04-13T10:22:05.188Z,953.10
2018-04-13T10:23:05.123Z,953.14
2018-04-13T10:24:05.064Z,953.17
2018-04-13T10:25:05.005Z,953.09
2018-04-13T10:26:04.950Z,953.06
2018-04-13T10:27:04.889Z,953.15
2018-04-13T10:28:04.830Z,953.12
2018-04-13T10:29:04.772Z,953.15
2018-04-13T10:30:04.714Z,953.14
2018-04-13T10:31:04.717Z,953.19
2018-04-13T10:32:04.614Z,953.09
2018-04-13T10:33:04.544Z,953.14
2018-04-13T10:34:04.482Z,953.14
2018-04-13T10:35:04.422Z,953.13
2018-04-13T10:36:04.363Z,953.20
2018-04-13T10:37:04.305Z,953.19
2018-04-13T10:38:04.247Z,953.19
2018-04-13T10:39:04.189Z,953.20
2018-04-13T10:40:04.130Z,953.18
2018-04-13T10:41:04.083Z,953.17
2018-04-13T10:42:04.013Z,953.27
2018-04-13T10:43:03.957Z,953.21
2018-04-13T10:44:03.897Z,953.23
2018-04-13T10:45:03.840Z,953.32
2018-04-13T10:46:03.783Z,953.31
2018-04-13T10:47:03.723Z,953.33
2018-04-13T10:48:03.664Z,953.33
2018-04-13T10:49:03.608Z,953.37
2018-04-13T10:50:03.549Z,953.37
2018-04-13T10:51:03.490Z,953.39
2018-04-13T10:52:03.432Z,953.35
2018-04-13T10:53:03.375Z,953.35
2018-04-13T10:54:03.318Z,953.41
2018-04-13T10:55:03.258Z,953.38
2018-04-13T10:56:03.200Z,953.37
2018-04-13T10:57:03.177Z,953.47
2018-04-13T10:58:03.083Z,953.48
2018-04-13T10:59:03.031Z,953.46
2018-04-13T11:00:02.969Z,953.46
2018-04-13T11:01:02.911Z,953.58
2018-04-13T11:02:02.851Z,953.58
2018-04-13T11:03:02.794Z,953.54
2018-04-13T11:04:02.746Z,953.62
2018-04-13T11:05:02.678Z,953.57
2018-04-13T11:06:02.620Z,953.64
2018-04-13T11:07:02.563Z,953.64
2018-04-13T11:08:02.503Z,953.73
2018-04-13T11:09:02.444Z,953.66
2018-04-13T11:10:02.389Z,953.63
2018-04-13T11:11:02.332Z,953.67
2018-04-13T11:12:02.271Z,953.66
2018-04-13T11:13:02.215Z,953.68
2018-04-13T11:14:02.165Z,953.72
2018-04-13T11:15:02.099Z,953.61
2018-04-13T11:16:02.043Z,953.72
2018-04-13T11:17:01.983Z,953.70
2018-04-13T11:18:01.926Z,953.73
2018-04-13T11:19:01.870Z,953.76
2018-04-13T11:20:01.809Z,953.73
2018-04-13T11:21:01.773Z,953.85
2018-04-13T11:22:01.713Z,953.84
2018-04-13T11:23:01.637Z,953.86
2018-04-13T11:24:01.579Z,953.86
2018-04-13T11:25:01.523Z,953.94
2018-04-13T11:26:01.462Z,953.87
2018-04-13T11:27:01.405Z,953.93
2018-04-13T11:28:01.349Z,953.95
2018-04-13T11:29:01.291Z,953.88
2018-04-13T11:30:01.256Z,953.96
2018-04-13T11:31:01.176Z,953.98
2018-04-13T11:32:01.116Z,953.94
2018-04-13T11:33:01.063Z,953.95
2018-04-13T11:34:01.001Z,953.99
2018-04-13T11:35:00.948Z,953.96
2018-04-13T11:36:00.887Z,954.01
2018-04-13T11:37:00.829Z,953.91
2018-04-13T11:38:00.772Z,953.95
2018-04-13T11:39:00.716Z,953.96
2018-04-13T11:40:00.658Z,954.00
2018-04-13T11:41:00.599Z,953.99
2018-04-13T11:42:00.542Z,953.98
2018-04-13T11:43:00.484Z,954.03
2018-04-13T11:44:00.440Z,954.03
2018-04-13T11:45:00.369Z,954.08
2018-04-13T11:46:00.311Z,954.08
2018-04-13T11:47:00.258Z,954.07
2018-04-13T11:48:00.196Z,954.07
2018-04-13T11:49:00.138Z,954.05
2018-04-13T11:50:00.081Z,954.06
2018-04-13T11:51:00.024Z,954.04
2018-04-13T11:51:59.968Z,954.14
2018-04-13T11:52:59.934Z,954.09
2018-04-13T11:53:59.865Z,954.08
2018-04-13T11:54:59.791Z,954.05
2018-04-13T11:55:59.738Z,954.02
2018-04-13T11:56:59.678Z,954.07
2018-04-13T11:57:59.622Z,954.09
2018-04-13T11:58:59.563Z,954.15
2018-04-13T11:59:59.517Z,954.09
2018-04-13T12:00:59.448Z,954.13
2018-04-13T12:01:59.392Z,954.13
2018-04-13T12:02:59.331Z,954.09
2018-04-13T12:03:59.274Z,954.19
2018-04-13T12:04:59.219Z,954.15
2018-04-13T12:05:59.161Z,954.18
2018-04-13T12:06:59.102Z,954.08
2018-04-13T12:07:59.046Z,954.10
2018-04-13T12:08:58.987Z,954.20
2018-04-13T12:09:58.929Z,954.15
2018-04-13T12:10:58.893Z,954.17
2018-04-13T12:11:58.856Z,954.24
2018-04-13T12:12:58.757Z,954.14
2018-04-13T12:13:58.700Z,954.20
2018-04-13T12:14:58.643Z,954.41
2018-04-13T12:15:58.584Z,954.28
2018-04-13T12:16:58.529Z,954.29
2018-04-13T12:17:58.465Z,954.33
2018-04-13T12:18:58.409Z,954.39
2018-04-13T12:19:58.353Z,954.42
2018-04-13T12:20:58.295Z,954.41
2018-04-13T12:21:58.236Z,954.49
2018-04-13T12:22:58.178Z,954.47
2018-04-13T12:23:58.122Z,954.49
2018-04-13T12:24:58.062Z,954.50
2018-04-13T12:25:58.005Z,954.52
2018-04-13T12:26:57.948Z,954.50
2018-04-13T12:27:57.891Z,954.52